KMGM/MGM METAR and TAF weather

Enter ICAO airport designator
Station Type Date Time Source
KMGM METAR 2020/10/20 16:53 UTC NOAA

KMGM 201653Z 05008KT 10SM BKN044 BKN050 27/17 A3017 RMK AO2 SLP212 T02670172


Station Type Date Time Source
KMGM Decoded METAR 2020/10/20 16:53 UTC NOAA

MONTGOMERY DANNELLY FIELD, AL, United States (KMGM) 32-18N 86-24W 63M
Oct 20, 2020 - 12:53 PM EDT / 2020.10.20 1653 UTC
Wind: from the NE (050 degrees) at 9 MPH (8 KT):0
Visibility: 10 mile(s):0
Sky conditions: mostly cloudy
Temperature: 80.1 F (26.7 C)
Dew Point: 63.0 F (17.2 C)
Relative Humidity: 55%
Pressure (altimeter): 30.17 in. Hg (1021 hPa)
ob: KMGM 201653Z 05008KT 10SM BKN044 BKN050 27/17 A3017 RMK AO2 SLP212 T02670172
cycle: 17

Station Type Date Time Source
KMGM TAF 2020/10/20 18:45 UTC NOAA

TAF KMGM 201739Z 2018/2118 08007KT P6SM BKN045
FM210100 VRB04KT P6SM SKC

Example: see airport list